createdAt,value
2023-05-10T00:02:15.992Z,7.8
2023-05-10T00:07:14.242Z,7.8
2023-05-10T00:12:12.346Z,7.8
2023-05-10T00:17:10.311Z,6.3
2023-05-10T00:22:12.115Z,7.8
2023-05-10T00:27:09.480Z,7.7
2023-05-10T00:32:07.549Z,7.5
2023-05-10T00:37:05.356Z,7.3
2023-05-10T00:42:03.366Z,7.1
2023-05-10T00:47:01.172Z,7
2023-05-10T00:51:58.977Z,7
2023-05-10T00:56:56.890Z,7
2023-05-10T01:01:55.191Z,7
2023-05-10T01:06:53.835Z,7
2023-05-10T01:11:51.809Z,6.9
2023-05-10T01:16:49.829Z,6.9
2023-05-10T01:21:47.993Z,7
2023-05-10T01:26:46.332Z,7
2023-05-10T01:31:44.999Z,6.8
2023-05-10T01:36:42.901Z,7
2023-05-10T01:41:41.028Z,6.9
2023-05-10T01:46:39.027Z,6.9
2023-05-10T01:51:36.997Z,6.8
2023-05-10T01:56:34.890Z,6.8
2023-05-10T02:01:32.817Z,6.8
2023-05-10T02:06:30.791Z,6.8
2023-05-10T02:11:28.620Z,6.7
2023-05-10T02:16:26.899Z,6.7
2023-05-10T02:21:24.762Z,6.6
2023-05-10T02:26:22.712Z,6.4
2023-05-10T02:31:20.624Z,6.4
2023-05-10T02:36:18.496Z,6.5
2023-05-10T02:41:16.315Z,6.3
2023-05-10T02:46:14.280Z,6.4
2023-05-10T02:51:12.243Z,6.3
2023-05-10T02:56:10.262Z,6.2
2023-05-10T03:01:08.210Z,6.2
2023-05-10T03:06:06.184Z,6.1
2023-05-10T03:11:04.249Z,6.1
2023-05-10T03:16:02.337Z,6
2023-05-10T03:21:00.400Z,6.1
2023-05-10T03:26:02.776Z,6.2
2023-05-10T03:31:00.317Z,6.3
2023-05-10T03:35:58.401Z,6.2
2023-05-10T03:40:56.887Z,6.4
2023-05-10T03:45:54.786Z,6.2
2023-05-10T03:50:52.832Z,6.2
2023-05-10T03:55:50.879Z,6.1
2023-05-10T04:00:52.592Z,6.3
2023-05-10T04:05:50.175Z,6.5
2023-05-10T04:10:48.534Z,6.6
2023-05-10T04:15:46.766Z,6.7
2023-05-10T04:20:45.088Z,6.8
2023-05-10T04:25:43.318Z,7
2023-05-10T04:30:41.246Z,6.8
2023-05-10T04:35:39.098Z,6.9
2023-05-10T04:40:37.465Z,7.1
2023-05-10T04:45:35.909Z,7.2
2023-05-10T04:50:34.302Z,7.3
2023-05-10T04:55:32.642Z,7.6
2023-05-10T05:00:31.011Z,7.9
2023-05-10T05:05:29.510Z,7.7
2023-05-10T05:10:27.934Z,8
2023-05-10T05:15:26.682Z,8.1
2023-05-10T05:20:24.870Z,8.5
2023-05-10T05:25:22.924Z,8.1
2023-05-10T05:30:21.126Z,8.2
2023-05-10T05:35:19.847Z,8.8
2023-05-10T05:40:18.580Z,9.5
2023-05-10T05:45:17.078Z,9.9
2023-05-10T05:50:14.296Z,9.5
2023-05-10T05:55:12.533Z,9.2
2023-05-10T06:00:10.859Z,9.8
2023-05-10T06:05:08.957Z,9.4
2023-05-10T06:10:07.132Z,9.7
2023-05-10T06:15:05.546Z,9.8
2023-05-10T06:20:03.611Z,9.2
2023-05-10T06:25:01.425Z,9.4
2023-05-10T06:30:09.554Z,8.8
2023-05-10T06:34:57.428Z,9.2
2023-05-10T06:39:55.839Z,9.6
2023-05-10T06:44:54.144Z,9.4
2023-05-10T06:49:52.235Z,10.1
2023-05-10T06:54:50.869Z,10.2
2023-05-10T06:59:49.564Z,11.1
2023-05-10T07:04:47.900Z,11.1
2023-05-10T07:09:45.754Z,11.2
2023-05-10T07:14:44.529Z,11.4
2023-05-10T07:19:43.413Z,12.2
2023-05-10T07:24:41.700Z,11.7
2023-05-10T07:29:39.509Z,12
2023-05-10T07:34:37.585Z,11.8
2023-05-10T07:39:35.382Z,11.3
2023-05-10T07:44:33.597Z,10.9
2023-05-10T07:49:31.512Z,10.4
2023-05-10T07:54:29.708Z,10.8
2023-05-10T07:59:27.980Z,11
2023-05-10T08:04:27.262Z,12
2023-05-10T08:09:25.625Z,13
2023-05-10T08:14:24.826Z,14
2023-05-10T08:19:23.365Z,15.1
2023-05-10T08:24:21.891Z,15.2
2023-05-10T08:29:19.839Z,14.5
2023-05-10T08:34:17.771Z,14.8
2023-05-10T08:39:29.626Z,15.6
2023-05-10T08:44:17.277Z,14.9
2023-05-10T08:49:14.749Z,15
2023-05-10T08:54:13.599Z,15.7
2023-05-10T08:59:12.534Z,16.7
2023-05-10T09:04:12.547Z,18.5
2023-05-10T09:09:11.168Z,19.5
2023-05-10T09:14:09.342Z,18.8
2023-05-10T09:19:07.718Z,19
2023-05-10T09:24:06.340Z,20.5
2023-05-10T09:29:05.155Z,20.4
2023-05-10T09:34:03.066Z,20.4
2023-05-10T09:39:00.581Z,19.8
2023-05-10T09:43:58.936Z,20.1
2023-05-10T09:48:56.870Z,19.5
2023-05-10T09:53:54.265Z,17.8
2023-05-10T09:58:52.243Z,18.2
2023-05-10T10:03:50.270Z,18.1
2023-05-10T10:08:48.850Z,18.2
2023-05-10T10:13:46.608Z,17.4
2023-05-10T10:18:44.318Z,16
2023-05-10T10:23:42.576Z,16.9
2023-05-10T10:28:41.483Z,17.7
2023-05-10T10:33:41.493Z,19.3
2023-05-10T10:38:40.404Z,20.1
2023-05-10T10:43:39.951Z,22.2
2023-05-10T10:48:38.717Z,22.8
2023-05-10T10:53:37.382Z,22.9
2023-05-10T10:58:35.273Z,22.2
2023-05-10T11:03:33.195Z,21.5
2023-05-10T11:08:31.647Z,21.5
2023-05-10T11:13:29.495Z,21.1
2023-05-10T11:18:27.908Z,21.5
2023-05-10T11:23:26.856Z,22.4
2023-05-10T11:28:25.090Z,22.5
2023-05-10T11:33:23.296Z,22.8
2023-05-10T11:38:21.871Z,23.9
2023-05-10T11:43:21.110Z,24.1
2023-05-10T11:48:18.900Z,23.8
2023-05-10T11:53:15.760Z,21.5
2023-05-10T11:58:12.586Z,20.3
2023-05-10T12:03:11.202Z,22.1
2023-05-10T12:08:10.570Z,22.2
2023-05-10T12:13:08.103Z,20.7
2023-05-10T12:18:04.885Z,19.8
2023-05-10T12:23:02.768Z,19.7
2023-05-10T12:28:02.247Z,20.1
2023-05-10T12:33:01.057Z,20.6
2023-05-10T12:37:58.002Z,19.9
2023-05-10T12:42:57.668Z,22.1
2023-05-10T12:47:54.921Z,20.5
2023-05-10T12:52:53.014Z,20.1
2023-05-10T12:57:50.784Z,18.7
2023-05-10T13:02:48.486Z,18.6
2023-05-10T13:07:46.714Z,18.6
2023-05-10T13:12:44.566Z,18
2023-05-10T13:17:43.371Z,18.2
2023-05-10T13:22:42.026Z,18.5
2023-05-10T13:27:39.336Z,18
2023-05-10T13:32:37.058Z,17.4
2023-05-10T13:37:34.528Z,16.8
2023-05-10T13:42:32.767Z,16.8
2023-05-10T13:47:30.888Z,16.3
2023-05-10T13:52:29.628Z,17.1
2023-05-10T13:57:28.686Z,17.7
2023-05-10T14:02:26.118Z,16.2
2023-05-10T14:07:23.489Z,16
2023-05-10T14:12:21.766Z,16.1
2023-05-10T14:17:18.294Z,13.9
2023-05-10T14:22:15.659Z,13.5
2023-05-10T14:27:13.948Z,13.7
2023-05-10T14:32:12.253Z,13.8
2023-05-10T14:37:09.920Z,13.5
2023-05-10T14:42:07.249Z,12.7
2023-05-10T14:47:04.791Z,12
2023-05-10T14:57:09.512Z,12.1
2023-05-10T15:02:08.075Z,12.9
2023-05-10T15:07:05.996Z,12.3
2023-05-10T15:12:03.609Z,12.1
2023-05-10T15:17:01.684Z,11.2
2023-05-10T15:21:59.791Z,11.4
2023-05-10T15:26:59.166Z,11.7
2023-05-10T15:31:57.365Z,11.6
2023-05-10T15:36:56.313Z,11.2
2023-05-10T15:41:54.478Z,11.6
2023-05-10T15:46:52.782Z,11.4
2023-05-10T15:51:50.511Z,11.4
2023-05-10T15:56:48.713Z,11.5
2023-05-10T16:01:46.610Z,10.9
2023-05-10T16:06:44.571Z,10.8
2023-05-10T16:11:42.591Z,10.8
2023-05-10T16:16:40.808Z,10.8
2023-05-10T16:21:39.177Z,10.1
2023-05-10T16:26:37.424Z,10.4
2023-05-10T16:31:35.957Z,10.5
2023-05-10T16:36:34.038Z,10.2
2023-05-10T16:41:31.738Z,9.8
2023-05-10T16:46:30.203Z,9.8
2023-05-10T16:51:28.127Z,9.5
2023-05-10T16:56:26.281Z,9.4
2023-05-10T17:01:26.415Z,9.2
2023-05-10T17:06:21.978Z,8.9
2023-05-10T17:11:20.233Z,8.9
2023-05-10T17:16:18.539Z,8.6
2023-05-10T17:21:16.671Z,8.4
2023-05-10T17:26:14.632Z,8.4
2023-05-10T17:31:12.672Z,8.2
2023-05-10T17:36:10.797Z,8.3
2023-05-10T17:41:08.897Z,8.1
2023-05-10T17:46:06.870Z,8
2023-05-10T17:51:05.049Z,8.1
2023-05-10T17:56:03.345Z,7.9
2023-05-10T18:01:01.698Z,7.9
2023-05-10T18:05:59.972Z,7.9
2023-05-10T18:10:58.442Z,7.9
2023-05-10T18:15:56.730Z,7.9
2023-05-10T18:20:55.029Z,7.9
2023-05-10T18:25:53.265Z,7.9
2023-05-10T18:30:51.881Z,7.9
2023-05-10T18:35:50.337Z,7.9
2023-05-10T18:40:48.497Z,7.9
2023-05-10T18:45:46.617Z,7.9
2023-05-10T18:50:44.583Z,7.9
2023-05-10T18:55:44.216Z,7.9
2023-05-10T19:00:41.084Z,7.8
2023-05-10T19:05:39.395Z,8
2023-05-10T19:10:37.467Z,7.9
2023-05-10T19:15:36.085Z,7.9
2023-05-10T19:20:34.229Z,7.9
2023-05-10T19:25:33.471Z,7.9
2023-05-10T19:30:32.012Z,7.9
2023-05-10T19:35:30.346Z,7.9
2023-05-10T19:40:28.475Z,8
2023-05-10T19:45:26.894Z,7.9
2023-05-10T19:50:25.164Z,7.9
2023-05-10T19:55:23.505Z,8
2023-05-10T20:00:21.774Z,8
2023-05-10T20:05:19.950Z,7.9
2023-05-10T20:10:18.006Z,7.9
2023-05-10T20:15:16.234Z,8
2023-05-10T20:20:14.663Z,7.9
2023-05-10T20:25:13.017Z,7.9
2023-05-10T20:30:11.394Z,8
2023-05-10T20:35:09.467Z,8
2023-05-10T20:40:07.652Z,7.9
2023-05-10T20:45:06.492Z,7.9
2023-05-10T20:50:04.600Z,7.9
2023-05-10T20:55:02.946Z,7.9
2023-05-10T21:00:01.226Z,8
2023-05-10T21:04:59.491Z,7.9
2023-05-10T21:09:57.588Z,7.9
2023-05-10T21:14:55.615Z,7.9
2023-05-10T21:19:53.589Z,7.8
2023-05-10T21:24:52.052Z,7.7
2023-05-10T21:29:50.392Z,7.9
2023-05-10T21:34:48.641Z,7.8
2023-05-10T21:39:46.651Z,7.8
2023-05-10T21:44:44.571Z,7.7
2023-05-10T21:49:42.698Z,7.8
2023-05-10T21:54:40.918Z,7.9
2023-05-10T21:59:39.988Z,7.9
2023-05-10T22:04:38.196Z,7.9
2023-05-10T22:09:36.470Z,7.8
2023-05-10T22:14:34.856Z,7.9
2023-05-10T22:19:33.157Z,7.8
2023-05-10T22:24:31.186Z,7.9
2023-05-10T22:29:29.308Z,7.9
2023-05-10T22:34:28.446Z,7.8
2023-05-10T22:39:26.312Z,7.8
2023-05-10T22:44:24.509Z,7.9
2023-05-10T22:49:22.630Z,7.9
2023-05-10T22:54:20.819Z,7.8
2023-05-10T22:59:19.234Z,7.9
2023-05-10T23:04:17.476Z,7.9
2023-05-10T23:09:15.616Z,7.8
2023-05-10T23:14:13.774Z,7.8
2023-05-10T23:19:11.846Z,7.9
2023-05-10T23:24:09.658Z,7.8
2023-05-10T23:29:07.864Z,7.8
2023-05-10T23:34:10.169Z,7.9
2023-05-10T23:39:07.310Z,7.8
2023-05-10T23:44:05.659Z,7.8
2023-05-10T23:49:03.968Z,7.8
2023-05-10T23:54:02.458Z,7.7
2023-05-10T23:59:00.546Z,7.8
